Time;durP1;ratioP1;P1;durP2;ratioP2;P2;SDS_P1;SDS_P2;PMS_P1;PMS_P2;Temp;Humidity;BMP_temperature;BMP_pressure;BME280_temperature;BME280_humidity;BME280_pressure;Samples;Min_cycle;Max_cycle;Signal;HPM_P1;HPM_P2
2020/12/31 00:02:24;;;;;;;38.67;14.07;;;;;;;1.17;97.70;101433.98;1600040;89;22026;-90
2020/12/31 00:04:50;;;;;;;40.08;14.87;;;;;;;1.05;98.47;101431.42;1598941;89;20970;-90
2020/12/31 00:07:16;;;;;;;42.23;14.65;;;;;;;1.05;98.55;101439.38;1598859;89;21136;-90
2020/12/31 00:09:42;;;;;;;40.03;14.45;;;;;;;1.04;98.19;101423.14;1598860;89;21228;-90
2020/12/31 00:12:08;;;;;;;37.00;14.18;;;;;;;1.09;98.75;101426.92;1595553;89;21617;-90
2020/12/31 00:14:34;;;;;;;44.93;16.37;;;;;;;1.03;98.54;101430.28;1598808;89;22529;-91
2020/12/31 00:17:00;;;;;;;38.48;14.23;;;;;;;1.12;98.29;101429.73;1598898;89;21054;-90
2020/12/31 00:19:25;;;;;;;40.12;15.48;;;;;;;0.93;98.82;101424.87;1598961;89;20962;-91
2020/12/31 00:21:51;;;;;;;41.35;15.80;;;;;;;0.90;99.05;101418.08;1603334;88;21071;-91
2020/12/31 00:24:17;;;;;;;36.93;14.68;;;;;;;1.02;98.99;101415.34;1628810;87;21093;-91
2020/12/31 00:26:43;;;;;;;39.80;14.85;;;;;;;1.07;98.60;101410.84;1628795;87;21247;-90
2020/12/31 00:29:09;;;;;;;40.73;14.98;;;;;;;1.07;98.57;101406.86;1628772;87;21095;-91
2020/12/31 00:31:35;;;;;;;42.73;16.55;;;;;;;1.04;98.26;101405.38;1629195;87;21040;-91
2020/12/31 00:34:01;;;;;;;44.45;14.75;;;;;;;1.01;98.00;101418.19;1629324;87;21624;-91
2020/12/31 00:36:27;;;;;;;45.90;16.20;;;;;;;1.04;97.94;101414.67;1628935;86;21197;-91
2020/12/31 00:38:53;;;;;;;43.50;15.63;;;;;;;1.01;97.96;101404.92;1629229;87;21159;-91
2020/12/31 00:41:21;;;;;;;42.50;15.25;;;;;;;1.02;97.20;101403.91;1629019;87;21244;-91
2020/12/31 00:43:49;;;;;;;42.48;15.60;;;;;;;0.95;97.98;101407.77;1628916;87;21190;-90
2020/12/31 00:46:15;;;;;;;40.95;14.75;;;;;;;1.02;97.48;101406.05;1568920;87;21749;-90
2020/12/31 00:48:41;;;;;;;42.00;13.62;;;;;;;0.92;97.49;101422.72;1613378;88;21179;-90
2020/12/31 00:51:08;;;;;;;43.38;14.47;;;;;;;0.93;97.35;101416.41;1613663;88;21270;-91
2020/12/31 00:53:34;;;;;;;37.03;12.60;;;;;;;0.83;97.49;101411.84;1613479;88;21361;-90
2020/12/31 00:56:00;;;;;;;42.67;13.95;;;;;;;0.88;97.68;101410.31;1613502;88;21088;-90
2020/12/31 00:58:26;;;;;;;37.45;14.53;;;;;;;0.82;97.99;101419.45;1613376;88;21033;-90
2020/12/31 01:00:52;;;;;;;38.98;13.62;;;;;;;0.87;97.54;101419.76;1613592;88;21058;-91
2020/12/31 01:03:18;;;;;;;35.55;14.00;;;;;;;0.83;97.35;101424.59;1613419;87;21295;-91
2020/12/31 01:05:44;;;;;;;37.13;14.15;;;;;;;0.89;97.33;101420.42;1613476;88;21009;-90
2020/12/31 01:08:10;;;;;;;38.67;15.08;;;;;;;0.72;97.55;101418.36;1613649;88;21038;-91
2020/12/31 01:10:36;;;;;;;37.35;14.93;;;;;;;0.72;97.30;101415.70;1609799;88;20993;-91
2020/12/31 01:13:02;;;;;;;42.38;15.10;;;;;;;0.68;97.62;101413.09;1613623;88;21147;-91
2020/12/31 01:15:28;;;;;;;34.90;13.15;;;;;;;0.62;98.46;101411.95;1613299;88;21289;-90
2020/12/31 01:17:54;;;;;;;41.73;14.65;;;;;;;0.75;98.21;101406.06;1613436;88;21096;-90
2020/12/31 01:20:20;;;;;;;37.58;13.25;;;;;;;0.83;97.25;101399.39;1613451;87;21745;-91
2020/12/31 01:22:46;;;;;;;40.60;13.58;;;;;;;0.72;97.29;101393.66;1613467;88;20985;-90
2020/12/31 01:25:11;;;;;;;40.45;14.75;;;;;;;0.74;97.27;101403.61;1592240;88;20980;-91
2020/12/31 01:27:38;;;;;;;38.40;14.98;;;;;;;0.75;96.98;101398.62;1613632;88;21203;-91
2020/12/31 01:30:06;;;;;;;39.40;15.00;;;;;;;0.63;97.29;101402.16;1613447;88;21203;-90
2020/12/31 01:32:32;;;;;;;36.80;14.73;;;;;;;0.47;98.42;101395.61;1613440;88;21679;-91
2020/12/31 01:34:58;;;;;;;38.58;15.00;;;;;;;0.43;98.65;101398.61;1613545;88;21049;-91
2020/12/31 01:37:23;;;;;;;36.42;14.58;;;;;;;0.52;98.41;101393.27;1592207;88;21039;-91
2020/12/31 01:39:50;;;;;;;39.10;15.03;;;;;;;0.41;98.77;101379.89;1613446;88;21813;-90
2020/12/31 01:42:16;;;;;;;38.25;13.13;;;;;;;0.44;98.76;101383.05;1625149;83;21605;-90
2020/12/31 01:44:43;;;;;;;37.30;13.40;;;;;;;0.41;98.61;101379.41;1697713;83;21582;-90
2020/12/31 01:47:11;;;;;;;35.28;14.20;;;;;;;0.42;98.40;101379.73;1697287;83;21129;-90
2020/12/31 01:49:41;;;;;;;35.58;12.88;;;;;;;0.37;99.00;101386.05;1697590;84;21586;-90
2020/12/31 01:52:08;;;;;;;39.63;14.87;;;;;;;0.42;98.71;101381.56;1697312;83;21570;-91
2020/12/31 01:54:35;;;;;;;36.85;13.83;;;;;;;0.20;99.51;101385.28;1697296;84;21237;-90
2020/12/31 01:57:01;;;;;;;40.88;14.20;;;;;;;0.26;99.42;101388.25;1697410;84;21164;-91
2020/12/31 01:59:27;;;;;;;36.33;14.75;;;;;;;0.17;100.00;101385.63;1697590;84;20951;-91
2020/12/31 02:01:54;;;;;;;35.50;13.62;;;;;;;0.20;100.00;101377.84;1697347;84;21058;-91
2020/12/31 02:04:21;;;;;;;32.48;13.15;;;;;;;0.21;100.00;101372.88;1705142;83;21202;-91
2020/12/31 02:06:48;;;;;;;41.90;14.38;;;;;;;0.15;99.98;101368.27;1705294;84;21145;-92
2020/12/31 02:09:14;;;;;;;33.48;13.18;;;;;;;0.28;99.70;101363.23;1705304;84;21658;-91
2020/12/31 02:11:41;;;;;;;40.43;14.23;;;;;;;0.14;99.87;101359.98;1705315;83;21141;-90
2020/12/31 02:14:07;;;;;;;36.75;14.87;;;;;;;0.26;100.00;101363.89;1705505;83;21551;-90
2020/12/31 02:16:39;;;;;;;36.60;12.55;;;;;;;0.21;99.70;101355.16;1705388;83;21488;-91
2020/12/31 02:19:13;;;;;;;38.10;14.10;;;;;;;0.13;99.91;101352.53;1685206;84;21494;-91
2020/12/31 02:21:46;;;;;;;;;;;;;;;0.25;100.00;101358.27;1707893;83;21173;-91
2020/12/31 02:24:13;;;;;;;33.48;12.35;;;;;;;0.36;99.07;101355.75;1684927;84;20271;-90
2020/12/31 02:26:40;;;;;;;36.88;13.90;;;;;;;0.26;99.47;101353.80;1705315;84;21109;-90
2020/12/31 02:29:09;;;;;;;34.25;13.25;;;;;;;0.17;99.95;101356.98;1705352;84;21924;-90
2020/12/31 02:31:36;;;;;;;35.48;12.75;;;;;;;0.33;99.70;101354.27;1705168;84;21140;-90
2020/12/31 02:34:04;;;;;;;34.83;13.35;;;;;;;0.18;99.71;101356.00;1705212;83;21164;-90
2020/12/31 02:36:33;;;;;;;33.13;14.18;;;;;;;0.37;99.40;101370.14;1705078;83;21109;-90
2020/12/31 02:39:03;;;;;;;36.17;14.03;;;;;;;0.42;98.79;101369.13;1705059;84;21554;-90
2020/12/31 02:41:29;;;;;;;37.78;13.72;;;;;;;0.35;98.90;101377.43;1680672;85;22089;-91
2020/12/31 02:43:55;;;;;;;62.45;22.10;;;;;;;0.48;98.50;101378.22;1680560;85;21136;-90
2020/12/31 02:46:22;;;;;;;40.65;15.13;;;;;;;0.52;97.90;101362.27;1680754;84;21150;-90
2020/12/31 02:48:50;;;;;;;36.88;14.10;;;;;;;0.44;97.71;101363.16;1680531;85;21211;-90
2020/12/31 02:51:17;;;;;;;41.45;14.43;;;;;;;0.51;97.60;101373.06;1680801;85;21148;-90
2020/12/31 02:53:43;;;;;;;37.93;14.20;;;;;;;0.51;97.34;101386.33;1680665;85;21222;-90
2020/12/31 02:56:15;;;;;;;38.80;13.72;;;;;;;0.44;97.60;101383.05;1680627;84;21108;-90
2020/12/31 02:58:41;;;;;;;38.85;15.30;;;;;;;0.53;97.49;101386.48;1643849;85;21175;-90
2020/12/31 03:01:07;;;;;;;38.20;13.38;;;;;;;0.44;97.37;101387.02;1680596;85;21132;-91
2020/12/31 03:03:34;;;;;;;36.60;13.58;;;;;;;0.43;97.31;101398.61;1680787;84;21704;-90
2020/12/31 03:06:01;;;;;;;36.50;13.88;;;;;;;0.45;97.33;101396.62;1658050;85;21732;-90
2020/12/31 03:08:27;;;;;;;35.15;13.40;;;;;;;0.50;97.30;101400.09;1680566;84;21239;-90
2020/12/31 03:10:54;;;;;;;38.78;14.35;;;;;;;0.41;97.09;101396.65;1680689;85;20966;-90
2020/12/31 03:13:23;;;;;;;38.88;14.98;;;;;;;0.45;97.04;101397.13;1680661;85;21016;-90
2020/12/31 03:15:55;;;;;;;34.90;13.62;;;;;;;0.58;96.65;101393.39;1680788;85;21169;-90
2020/12/31 03:18:21;;;;;;;38.17;13.68;;;;;;;0.54;96.40;101395.26;1651672;86;21947;-90
2020/12/31 03:20:49;;;;;;;35.73;12.88;;;;;;;0.68;96.14;101394.52;1651728;86;21471;-90
2020/12/31 03:23:15;;;;;;;35.23;12.55;;;;;;;0.57;95.57;101398.38;1651680;86;21701;-90
2020/12/31 03:25:42;;;;;;;31.95;12.98;;;;;;;0.42;96.12;101400.95;1651931;86;21219;-89
2020/12/31 03:28:09;;;;;;;35.13;13.35;;;;;;;0.48;96.29;101411.36;1651411;86;21164;-91
2020/12/31 03:30:36;;;;;;;38.25;13.50;;;;;;;0.56;96.09;101402.52;1651954;86;21214;-89
2020/12/31 03:33:04;;;;;;;37.48;13.65;;;;;;;0.53;96.11;101397.56;1651569;86;21359;-89
2020/12/31 03:35:30;;;;;;;32.53;12.65;;;;;;;0.44;96.24;101406.91;1651723;86;21239;-90
2020/12/31 03:37:56;;;;;;;34.40;12.58;;;;;;;0.41;96.67;101409.05;1623585;87;21171;-90
2020/12/31 03:40:23;;;;;;;36.17;13.13;;;;;;;0.56;96.62;101402.52;1643443;87;21638;-90
2020/12/31 03:42:49;;;;;;;34.92;13.00;;;;;;;0.62;96.35;101404.50;1643363;87;21176;-91
2020/12/31 03:45:15;;;;;;;36.35;13.78;;;;;;;0.64;95.89;101404.62;1617836;87;21271;-90
2020/12/31 03:47:41;;;;;;;37.63;13.85;;;;;;;0.66;96.15;101406.62;1643311;87;21256;-90
2020/12/31 03:50:07;;;;;;;33.85;12.37;;;;;;;0.68;95.88;101416.56;1643279;87;20985;-90
2020/12/31 03:52:33;;;;;;;30.00;11.40;;;;;;;0.73;95.95;101401.94;1643287;87;21187;-90
2020/12/31 03:54:59;;;;;;;29.48;11.73;;;;;;;0.78;95.98;101407.05;1643378;87;21791;-90
2020/12/31 03:57:25;;;;;;;34.60;12.68;;;;;;;0.83;95.97;101392.77;1643126;87;21631;-90
2020/12/31 03:59:51;;;;;;;33.10;12.23;;;;;;;0.74;95.86;101399.63;1643385;87;21013;-90
2020/12/31 04:02:17;;;;;;;32.88;11.88;;;;;;;0.70;96.22;101392.50;1643298;87;21122;-90
2020/12/31 04:04:44;;;;;;;32.80;11.78;;;;;;;0.69;96.33;101393.51;1643430;86;21064;-90
2020/12/31 04:07:10;;;;;;;31.27;12.20;;;;;;;0.71;96.40;101398.63;1643436;87;22053;-90
2020/12/31 04:09:35;;;;;;;29.98;11.73;;;;;;;0.84;96.17;101388.27;1643406;87;20953;-91
2020/12/31 04:12:02;;;;;;;33.33;11.88;;;;;;;0.76;96.35;101386.48;1643369;87;20953;-91
2020/12/31 04:14:28;;;;;;;32.67;12.30;;;;;;;0.76;96.26;101398.42;1655191;84;20990;-89
2020/12/31 04:16:54;;;;;;;34.45;12.98;;;;;;;0.75;96.38;101391.48;1705559;83;20939;-90
2020/12/31 04:19:20;;;;;;;34.78;12.82;;;;;;;0.76;96.31;101411.69;1705691;83;21252;-89
2020/12/31 04:21:47;;;;;;;35.47;12.27;;;;;;;0.98;96.09;101409.25;1705504;84;21652;-90
2020/12/31 04:24:13;;;;;;;31.02;11.93;;;;;;;1.06;95.58;101395.91;1705425;82;21117;-91
2020/12/31 04:26:39;;;;;;;32.45;11.88;;;;;;;1.04;95.31;101405.89;1705614;83;21181;-90
2020/12/31 04:29:05;;;;;;;33.33;12.10;;;;;;;1.10;95.23;101398.55;1705389;84;20994;-90
2020/12/31 04:31:31;;;;;;;33.10;11.78;;;;;;;1.02;95.48;101411.87;1705301;83;21195;-91
2020/12/31 04:33:57;;;;;;;33.33;12.53;;;;;;;0.99;95.50;101409.06;1684985;84;21105;-90
2020/12/31 04:36:23;;;;;;;37.42;13.62;;;;;;;0.99;95.32;101401.09;1705293;83;21153;-90
2020/12/31 04:38:49;;;;;;;35.90;12.53;;;;;;;0.99;95.08;101408.24;1685532;84;21014;-91
2020/12/31 04:41:14;;;;;;;36.95;13.48;;;;;;;0.91;95.67;101398.49;1705327;83;21110;-91
2020/12/31 04:43:42;;;;;;;33.38;13.05;;;;;;;0.81;95.56;101394.75;1705282;84;21251;-90
2020/12/31 04:46:11;;;;;;;32.45;11.88;;;;;;;0.78;96.48;101412.34;1705354;83;21176;-90
2020/12/31 04:48:42;;;;;;;36.15;12.40;;;;;;;0.87;95.96;101410.47;1685078;84;21133;-90
2020/12/31 04:51:11;;;;;;;40.17;13.20;;;;;;;0.85;95.74;101411.99;1705398;84;21157;-91
2020/12/31 04:53:41;;;;;;;36.65;13.00;;;;;;;0.89;95.79;101400.02;1705370;83;21574;-90
2020/12/31 04:56:08;;;;;;;39.95;13.18;;;;;;;0.83;95.77;101413.16;1705441;83;21192;-91
2020/12/31 04:58:34;;;;;;;38.45;12.75;;;;;;;0.76;96.20;101415.67;1706199;83;21233;-90
2020/12/31 05:01:00;;;;;;;36.28;12.90;;;;;;;0.80;96.13;101406.37;1705418;82;21605;-90
2020/12/31 05:03:26;;;;;;;37.05;13.55;;;;;;;0.73;96.64;101415.20;1706731;83;21011;-90
2020/12/31 05:05:56;;;;;;;45.85;13.95;;;;;;;0.83;96.55;101419.80;1705457;84;21076;-90
2020/12/31 05:08:29;;;;;;;37.75;13.08;;;;;;;0.78;96.60;101417.66;1705357;84;21202;-90
2020/12/31 05:10:57;;;;;;;36.58;12.73;;;;;;;0.68;97.03;101420.53;1705464;83;21160;-90
2020/12/31 05:13:24;;;;;;;32.10;12.13;;;;;;;0.80;96.92;101418.82;1705306;84;21117;-90
2020/12/31 05:15:50;;;;;;;39.05;13.55;;;;;;;0.67;97.51;101415.39;1705405;83;21074;-91
2020/12/31 05:18:26;;;;;;;35.08;12.70;;;;;;;0.62;97.00;101414.61;1705378;83;21069;-90
2020/12/31 05:20:54;;;;;;;40.30;14.18;;;;;;;0.65;97.62;101408.13;1705355;84;21255;-90
2020/12/31 05:23:28;;;;;;;42.30;13.62;;;;;;;0.61;98.07;101413.44;1705402;83;21211;-90
2020/12/31 05:25:56;;;;;;;38.50;13.85;;;;;;;0.70;97.97;101408.41;1705226;84;21125;-90
2020/12/31 05:28:34;;;;;;;40.12;13.83;;;;;;;0.87;97.13;101405.17;1701917;84;21606;-90
2020/12/31 05:31:07;;;;;;;38.90;13.13;;;;;;;0.88;97.06;101398.38;1705222;84;21193;-90
2020/12/31 05:33:36;;;;;;;36.60;12.10;;;;;;;0.67;97.39;101396.83;1705242;84;21295;-90
2020/12/31 05:36:16;;;;;;;36.50;13.40;;;;;;;0.70;97.94;101387.19;1705413;82;21581;-90
2020/12/31 05:39:00;;;;;;;40.83;13.72;;;;;;;0.70;97.80;101442.89;1705371;84;21082;-90
2020/12/31 05:41:27;;;;;;;38.55;13.98;;;;;;;0.81;97.99;101468.22;1705272;83;21157;-90
2020/12/31 05:44:00;;;;;;;43.38;14.68;;;;;;;0.81;97.57;101456.28;1705234;84;21574;-90
2020/12/31 05:46:29;;;;;;;31.65;10.50;;;;;;;0.78;97.73;101477.84;1701225;84;21263;-90
2020/12/31 05:51:34;;;;;;;45.45;15.28;;;;;;;1.00;96.90;101463.81;1636773;87;21247;-90
2020/12/31 05:54:13;;;;;;;46.33;14.10;;;;;;;1.06;96.48;101464.44;1637043;87;21215;-90
2020/12/31 05:56:42;;;;;;;39.05;13.53;;;;;;;1.01;96.57;101450.86;1614972;88;21243;-90
2020/12/31 05:59:28;;;;;;;38.53;13.35;;;;;;;0.98;96.22;101449.06;1615066;88;21619;-91
2020/12/31 06:02:04;;;;;;;35.83;12.43;;;;;;;0.93;96.56;101432.32;1614846;88;21306;-91
2020/12/31 06:04:44;;;;;;;39.03;12.63;;;;;;;0.88;96.74;101432.87;1604088;88;21231;-91
2020/12/31 06:07:21;;;;;;;35.33;12.88;;;;;;;0.80;97.54;101431.58;1596635;89;21451;-91
2020/12/31 06:09:50;;;;;;;38.65;12.80;;;;;;;0.76;97.73;101423.63;1557680;92;21231;-90
2020/12/31 06:12:20;;;;;;;37.13;12.85;;;;;;;0.78;98.25;101446.02;1559285;92;21373;-91
2020/12/31 06:14:49;;;;;;;43.00;13.68;;;;;;;0.94;97.75;101443.25;1559109;92;21216;-90
2020/12/31 06:17:19;;;;;;;38.98;12.60;;;;;;;1.00;97.52;101448.36;1536417;92;21282;-91
2020/12/31 06:19:50;;;;;;;41.40;12.93;;;;;;;1.04;97.65;101441.72;1559121;92;21551;-90
2020/12/31 06:22:21;;;;;;;40.03;13.65;;;;;;;1.08;97.49;101430.55;1559078;91;21216;-91
2020/12/31 06:24:51;;;;;;;41.05;12.58;;;;;;;1.22;97.16;101442.75;1559065;92;21426;-91
2020/12/31 06:27:17;;;;;;;39.83;13.88;;;;;;;1.32;96.44;101438.87;1559011;92;21288;-90
2020/12/31 06:29:50;;;;;;;38.92;11.88;;;;;;;1.22;96.64;101437.45;1559216;92;21192;-91
2020/12/31 06:32:32;;;;;;;34.85;12.13;;;;;;;1.28;96.46;101430.91;1559269;92;21219;-90
2020/12/31 06:35:07;;;;;;;35.68;12.03;;;;;;;1.16;96.91;101432.84;1578026;90;21708;-91
2020/12/31 06:37:34;;;;;;;37.13;11.93;;;;;;;1.28;96.58;101430.09;1579723;90;22032;-91
2020/12/31 06:40:30;;;;;;;40.45;12.93;;;;;;;1.14;97.22;101423.21;1579681;90;21262;-90
2020/12/31 06:43:09;;;;;;;42.23;13.28;;;;;;;1.10;97.01;101426.41;1579626;90;21406;-90
2020/12/31 06:45:43;;;;;;;39.58;13.08;;;;;;;1.27;96.55;101434.58;1579384;90;21223;-90
2020/12/31 06:48:33;;;;;;;35.08;12.03;;;;;;;1.33;96.26;101436.53;1580162;89;21169;-90
2020/12/31 06:51:06;;;;;;;39.85;11.63;;;;;;;1.32;96.05;101440.67;1599439;89;21137;-91
2020/12/31 06:53:48;;;;;;;29.55;10.45;;;;;;;1.30;96.07;101427.59;1580571;90;21229;-90
2020/12/31 06:56:15;;;;;;;38.75;12.20;;;;;;;1.24;96.36;101421.66;1580401;90;21225;-91
2020/12/31 06:58:44;;;;;;;52.60;14.47;;;;;;;1.22;96.78;101422.34;1580180;90;21157;-90
2020/12/31 07:01:28;;;;;;;35.23;11.73;;;;;;;1.13;97.07;101432.70;1580612;89;22487;-90
2020/12/31 07:03:56;;;;;;;36.75;12.00;;;;;;;1.10;97.52;101423.76;1584533;88;21209;-91
2020/12/31 07:06:26;;;;;;;40.45;12.55;;;;;;;1.12;97.55;101433.70;1596807;89;21132;-90
2020/12/31 07:08:54;;;;;;;40.08;12.78;;;;;;;1.22;97.48;101432.14;1596742;88;21109;-91
2020/12/31 07:11:38;;;;;;;45.83;11.55;;;;;;;1.35;97.12;101435.86;1596750;89;21208;-90
2020/12/31 07:14:20;;;;;;;;;;;;;;;1.32;97.12;101434.03;1599165;89;21405;-90
2020/12/31 07:17:03;;;;;;;37.80;12.25;;;;;;;1.37;96.92;101427.70;1596910;89;21196;-90
2020/12/31 07:19:37;;;;;;;34.70;11.18;;;;;;;1.53;97.11;101441.33;1596662;89;21070;-90
2020/12/31 07:22:20;;;;;;;32.28;10.85;;;;;;;1.58;96.61;101436.31;1596643;89;21112;-91
2020/12/31 07:25:11;;;;;;;39.45;12.70;;;;;;;1.58;96.30;101441.62;1583596;87;21258;-90
2020/12/31 07:27:40;;;;;;;40.10;12.10;;;;;;;1.68;95.90;101435.57;1646123;87;21171;-90
2020/12/31 07:30:21;;;;;;;43.23;12.88;;;;;;;1.69;95.78;101445.19;1646156;87;22007;-90
2020/12/31 07:33:06;;;;;;;41.65;12.00;;;;;;;1.66;95.55;101440.73;1646104;86;21084;-89
2020/12/31 07:35:43;;;;;;;37.65;12.60;;;;;;;1.62;94.99;101438.09;1623854;87;21230;-90
2020/12/31 07:38:15;;;;;;;34.55;11.12;;;;;;;1.55;95.76;101441.48;1640183;86;21179;-91
2020/12/31 07:40:53;;;;;;;41.77;14.65;;;;;;;1.56;95.42;101431.70;1640466;87;21279;-90
2020/12/31 07:43:25;;;;;;;49.98;15.38;;;;;;;1.46;95.93;101444.39;1640628;86;21179;-90
2020/12/31 07:46:01;;;;;;;35.85;12.18;;;;;;;1.53;95.78;101443.98;1640508;87;21226;-91
2020/12/31 07:48:28;;;;;;;39.75;12.03;;;;;;;1.58;95.85;101441.12;1640517;87;21183;-90
2020/12/31 07:50:57;;;;;;;36.68;11.75;;;;;;;1.70;95.49;101434.86;1599822;87;21277;-90
2020/12/31 07:53:25;;;;;;;59.50;17.07;;;;;;;1.76;95.67;101445.28;1582258;90;21131;-89
2020/12/31 07:55:53;;;;;;;40.90;12.55;;;;;;;1.97;95.28;101445.42;1581954;89;21380;-91
2020/12/31 07:58:22;;;;;;;35.90;12.03;;;;;;;1.91;95.35;101439.98;1582001;89;21631;-90
2020/12/31 08:00:59;;;;;;;42.08;11.80;;;;;;;1.95;95.01;101439.45;1581901;90;21115;-90
2020/12/31 08:03:25;;;;;;;37.03;11.90;;;;;;;2.02;94.38;101436.38;1582031;90;21187;-90
2020/12/31 08:06:07;;;;;;;40.63;12.78;;;;;;;1.97;94.63;101432.61;1631836;87;21076;-89
2020/12/31 08:08:34;;;;;;;37.35;11.68;;;;;;;2.03;94.73;101430.58;1634438;87;21169;-90
2020/12/31 08:11:08;;;;;;;34.60;12.07;;;;;;;2.24;94.26;101442.63;1634511;87;21267;-90
2020/12/31 08:13:35;;;;;;;33.15;11.40;;;;;;;2.27;93.76;101427.63;1605800;88;21158;-90
2020/12/31 08:16:01;;;;;;;35.23;12.05;;;;;;;2.21;93.54;101427.05;1583922;89;21346;-91
2020/12/31 08:18:27;;;;;;;40.33;13.40;;;;;;;2.07;93.25;101425.20;1584911;89;21536;-91
2020/12/31 08:20:56;;;;;;;37.17;12.65;;;;;;;2.15;93.70;101430.44;1606188;89;21175;-90
2020/12/31 08:23:28;;;;;;;38.88;12.05;;;;;;;2.32;93.66;101426.24;1606140;89;21200;-91
2020/12/31 08:25:59;;;;;;;45.20;15.15;;;;;;;2.34;92.93;101422.39;1537923;92;21192;-90
2020/12/31 08:28:25;;;;;;;36.73;12.80;;;;;;;2.30;93.25;101419.80;1557967;90;21279;-90
2020/12/31 08:30:51;;;;;;;29.05;9.93;;;;;;;2.37;93.09;101419.87;1557877;90;20982;-90
2020/12/31 08:33:25;;;;;;;28.75;10.50;;;;;;;2.29;91.79;101420.78;1530497;92;21235;-91
2020/12/31 08:35:52;;;;;;;37.45;11.78;;;;;;;2.25;92.93;101421.66;1594108;89;21299;-90
2020/12/31 08:38:23;;;;;;;34.63;12.18;;;;;;;2.26;92.97;101419.34;1605991;88;21233;-90
2020/12/31 08:40:56;;;;;;;36.30;13.40;;;;;;;2.46;92.54;101416.09;1606079;87;21173;-91
2020/12/31 08:43:37;;;;;;;43.68;15.05;;;;;;;2.40;92.19;101410.19;1606198;88;27514;-91
2020/12/31 08:46:09;;;;;;;46.25;15.48;;;;;;;2.34;92.60;101418.41;1606232;88;21413;-90
2020/12/31 08:48:36;;;;;;;32.10;11.38;;;;;;;2.32;92.82;101419.59;1603105;88;21226;-91
2020/12/31 08:51:12;;;;;;;37.48;12.53;;;;;;;2.36;92.54;101406.27;1619729;87;21173;-91
2020/12/31 08:53:56;;;;;;;35.28;11.25;;;;;;;2.37;92.56;101402.59;1632514;86;21276;-91
2020/12/31 08:56:31;;;;;;;57.40;17.07;;;;;;;2.66;91.59;101396.38;1632505;86;21525;-91
2020/12/31 08:59:16;;;;;;;40.05;12.65;;;;;;;2.61;91.42;101402.25;1632396;86;21233;-92
2020/12/31 09:01:45;;;;;;;30.30;10.63;;;;;;;2.52;91.39;101395.91;1632385;87;21674;-92
2020/12/31 09:04:20;;;;;;;30.15;10.88;;;;;;;2.57;90.71;101402.83;1693005;83;21252;-91
2020/12/31 09:06:57;;;;;;;39.90;13.20;;;;;;;2.64;90.24;101403.72;1697645;84;21181;-90
2020/12/31 09:09:28;;;;;;;29.32;11.12;;;;;;;2.49;90.79;101405.91;1697282;84;21207;-90
2020/12/31 09:14:31;;;;;;;39.98;13.40;;;;;;;2.53;90.88;101400.20;1677734;84;21783;-91
2020/12/31 09:16:56;;;;;;;36.88;13.45;;;;;;;2.42;91.34;101390.89;1626514;86;21508;-91
2020/12/31 09:19:23;;;;;;;35.85;12.53;;;;;;;2.56;91.15;101385.20;1637695;86;20997;-90
2020/12/31 09:21:50;;;;;;;37.78;12.70;;;;;;;2.53;90.70;101389.56;1677960;85;21053;-91
2020/12/31 09:24:20;;;;;;;34.45;11.57;;;;;;;2.36;91.50;101382.33;1678011;85;21648;-91
2020/12/31 09:26:55;;;;;;;33.40;11.78;;;;;;;2.42;91.38;101386.91;1644178;86;21161;-91
2020/12/31 09:29:21;;;;;;;39.60;13.60;;;;;;;2.41;91.30;101382.09;1642322;87;21218;-91
2020/12/31 09:31:48;;;;;;;34.25;11.45;;;;;;;2.46;91.69;101379.67;1642485;85;21185;-92
2020/12/31 09:34:14;;;;;;;38.83;12.90;;;;;;;2.54;91.44;101373.44;1642492;87;21744;-91
2020/12/31 09:36:41;;;;;;;36.93;12.88;;;;;;;2.45;91.40;101374.05;1642640;87;21256;-91
2020/12/31 09:39:07;;;;;;;38.58;12.45;;;;;;;2.46;91.52;101381.00;1642379;87;21149;-91
2020/12/31 09:41:33;;;;;;;37.00;12.20;;;;;;;2.55;91.27;101377.73;1642630;87;21153;-92
2020/12/31 09:44:00;;;;;;;35.88;12.50;;;;;;;2.62;91.17;101367.19;1642520;87;20975;-91
2020/12/31 09:46:26;;;;;;;36.60;12.50;;;;;;;2.55;91.57;101369.75;1642663;87;21213;-92
2020/12/31 09:48:52;;;;;;;44.42;15.95;;;;;;;2.78;90.58;101357.61;1642575;87;21249;-91
2020/12/31 09:51:20;;;;;;;37.58;12.40;;;;;;;2.54;91.23;101366.78;1642577;87;21097;-91
2020/12/31 09:53:52;;;;;;;37.85;13.20;;;;;;;2.54;90.08;101356.65;1642480;87;21231;-91
2020/12/31 09:56:19;;;;;;;39.17;13.13;;;;;;;2.54;90.92;101355.32;1642884;87;21492;-90
2020/12/31 09:58:45;;;;;;;37.15;12.25;;;;;;;2.46;91.16;101347.75;1631670;87;21167;-91
2020/12/31 10:01:12;;;;;;;40.30;12.47;;;;;;;2.57;90.39;101357.60;1631748;87;21337;-91
2020/12/31 10:03:38;;;;;;;32.50;11.73;;;;;;;2.61;90.66;101358.86;1610050;87;21120;-89
2020/12/31 10:06:08;;;;;;;31.87;11.60;;;;;;;2.68;90.52;101347.29;1631641;87;21759;-91
2020/12/31 10:08:34;;;;;;;47.05;16.23;;;;;;;2.71;90.22;101352.23;1631673;87;21319;-91
2020/12/31 10:11:03;;;;;;;39.73;14.13;;;;;;;2.73;90.60;101342.71;1630391;87;21253;-92
2020/12/31 10:13:29;;;;;;;45.63;14.28;;;;;;;2.88;91.06;101350.16;1627802;88;22051;-92
2020/12/31 10:16:00;;;;;;;48.65;16.00;;;;;;;2.91;91.10;101344.93;1627797;88;21820;-91
2020/12/31 10:18:26;;;;;;;58.25;17.55;;;;;;;3.09;90.61;101337.82;1625593;88;21191;-92
2020/12/31 10:20:52;;;;;;;35.00;13.18;;;;;;;3.19;90.14;101344.98;1627848;88;21307;-91
2020/12/31 10:23:18;;;;;;;35.08;13.05;;;;;;;3.55;89.48;101336.02;1636803;86;21002;-91
2020/12/31 10:25:49;;;;;;;40.48;13.40;;;;;;;3.45;88.59;101342.22;1630842;86;21576;-92
2020/12/31 10:28:16;;;;;;;42.08;13.70;;;;;;;3.42;88.60;101332.77;1631529;86;21050;-91
2020/12/31 10:30:42;;;;;;;33.92;12.63;;;;;;;3.34;88.31;101327.58;1697046;84;21248;-90
2020/12/31 10:33:07;;;;;;;40.98;13.43;;;;;;;3.36;88.00;101330.88;1704715;83;20956;-90
2020/12/31 10:35:33;;;;;;;40.05;13.62;;;;;;;3.15;88.08;101331.75;1704308;84;21138;-91
2020/12/31 10:37:59;;;;;;;41.48;13.25;;;;;;;3.08;88.80;101326.86;1704844;83;21235;-91
2020/12/31 10:40:25;;;;;;;44.05;14.25;;;;;;;3.07;88.88;101322.05;1679161;84;21141;-90
2020/12/31 10:42:51;;;;;;;37.42;13.05;;;;;;;3.07;88.80;101311.91;1653546;86;21033;-90
2020/12/31 10:45:17;;;;;;;38.75;12.73;;;;;;;3.06;89.14;101310.24;1654308;86;21039;-90
2020/12/31 10:47:43;;;;;;;44.77;14.23;;;;;;;3.09;89.07;101309.86;1654165;86;20970;-91
2020/12/31 10:50:09;;;;;;;45.75;14.83;;;;;;;3.01;89.49;101298.04;1654319;86;21260;-91
2020/12/31 10:52:34;;;;;;;40.92;14.13;;;;;;;2.83;90.49;101303.83;1654055;86;21007;-91
2020/12/31 10:55:00;;;;;;;46.00;15.10;;;;;;;3.16;90.25;101297.44;1654121;86;20938;-91
2020/12/31 10:57:26;;;;;;;44.93;15.75;;;;;;;3.22;89.49;101286.52;1654208;86;21517;-91
2020/12/31 10:59:53;;;;;;;47.83;16.25;;;;;;;2.93;89.60;101288.34;1654190;86;20985;-91
2020/12/31 11:02:19;;;;;;;39.45;13.68;;;;;;;3.14;89.44;101286.97;1655170;86;21168;-92
2020/12/31 11:04:45;;;;;;;37.35;13.20;;;;;;;3.25;89.22;101295.45;1653559;86;21270;-92
2020/12/31 11:07:11;;;;;;;42.13;12.90;;;;;;;3.27;88.02;101285.44;1669130;84;20987;-91
2020/12/31 11:09:37;;;;;;;51.45;16.73;;;;;;;3.23;88.81;101289.48;1705588;83;21017;-89
2020/12/31 11:12:03;;;;;;;56.13;19.55;;;;;;;3.23;88.81;101289.48;1705428;83;21050;-90
2020/12/31 11:14:29;;;;;;;45.90;15.20;;;;;;;3.29;88.92;101287.38;1685179;84;21218;-91
2020/12/31 11:16:58;;;;;;;47.65;15.88;;;;;;;3.04;89.11;101288.34;1705285;83;21143;-91
2020/12/31 11:19:26;;;;;;;50.98;16.45;;;;;;;2.61;90.90;101288.36;1705747;83;21137;-92
2020/12/31 11:21:52;;;;;;;38.42;13.08;;;;;;;2.73;90.55;101282.33;1704989;83;21168;-91
2020/12/31 11:24:18;;;;;;;47.25;16.87;;;;;;;2.64;90.85;101274.67;1705318;83;21098;-91
2020/12/31 11:26:44;;;;;;;47.20;15.45;;;;;;;2.71;90.87;101283.55;1684805;84;22408;-92
2020/12/31 11:29:11;;;;;;;46.50;16.30;;;;;;;2.67;90.96;101279.09;1705313;83;21141;-92
2020/12/31 11:31:37;;;;;;;49.73;16.02;;;;;;;2.60;91.44;101277.41;1705518;83;21097;-91